createdAt,value
2023-02-23T00:02:07.221Z,100952.09
2023-02-23T00:04:35.435Z,100985.03
2023-02-23T00:07:02.382Z,101026.13
2023-02-23T00:09:35.479Z,100948.25
2023-02-23T00:12:08.312Z,100949.19
2023-02-23T00:14:37.577Z,100977.88
2023-02-23T00:17:04.725Z,101036.94
2023-02-23T00:19:33.377Z,101002.84
2023-02-23T00:22:01.091Z,100958.06
2023-02-23T00:24:27.811Z,101038.50
2023-02-23T00:26:54.488Z,101013.22
2023-02-23T00:29:23.178Z,101044.59
2023-02-23T00:31:51.461Z,100942.59
2023-02-23T00:34:23.592Z,100818.25
2023-02-23T00:36:54.332Z,101060.78
2023-02-23T00:39:23.709Z,101056.34
2023-02-23T00:41:52.236Z,101054.53
2023-02-23T00:44:19.491Z,101033.88
2023-02-23T00:46:51.017Z,101054.41
2023-02-23T00:49:18.877Z,100964.09
2023-02-23T00:51:45.546Z,100945.31
2023-02-23T00:54:17.551Z,101016.81
2023-02-23T00:56:45.279Z,101049.19
2023-02-23T00:59:12.843Z,101037.53
2023-02-23T01:01:41.698Z,101043.81
2023-02-23T01:04:09.310Z,101062.53
2023-02-23T01:06:37.674Z,100919.56
2023-02-23T01:09:10.077Z,101036.72
2023-02-23T01:11:38.330Z,100982.13
2023-02-23T01:14:05.141Z,101024.13
2023-02-23T01:16:34.731Z,100964.22
2023-02-23T01:19:04.071Z,101051.03
2023-02-23T01:21:33.993Z,101004.47
2023-02-23T01:24:02.255Z,100932.03
2023-02-23T01:26:37.612Z,101015.09
2023-02-23T01:29:10.556Z,101056.16
2023-02-23T01:31:39.853Z,100961.97
2023-02-23T01:34:11.803Z,100941.63
2023-02-23T01:36:40.199Z,101054.16
2023-02-23T01:39:12.212Z,100969.13
2023-02-23T01:41:42.379Z,101025.38
2023-02-23T01:44:31.690Z,101046.66
2023-02-23T01:46:58.361Z,101013.69
2023-02-23T01:49:28.307Z,101043.00
2023-02-23T01:52:00.291Z,100959.72
2023-02-23T01:54:32.918Z,100974.06
2023-02-23T01:57:02.475Z,101032.13
2023-02-23T01:59:38.094Z,101026.72
2023-02-23T02:02:07.642Z,101050.06
2023-02-23T02:04:46.003Z,101039.25
2023-02-23T02:07:35.175Z,100970.34
2023-02-23T02:10:22.510Z,100953.38
2023-02-23T02:13:05.776Z,101074.06
2023-02-23T02:15:38.675Z,101064.31
2023-02-23T02:18:41.619Z,101073.28
2023-02-23T02:21:17.821Z,101071.56
2023-02-23T02:24:04.089Z,101076.94
2023-02-23T02:26:36.874Z,101071.56
2023-02-23T02:29:26.371Z,101075.97
2023-02-23T02:32:21.322Z,101067.97
2023-02-23T02:35:09.637Z,101069.69
2023-02-23T02:37:48.330Z,101063.50
2023-02-23T02:40:53.365Z,101069.69
2023-02-23T02:43:27.359Z,100962.41
2023-02-23T02:46:14.752Z,100956.88
2023-02-23T02:49:06.711Z,101026.72
2023-02-23T02:51:46.727Z,100946.25
2023-02-23T02:54:24.201Z,101066.06
2023-02-23T02:56:54.971Z,100955.13
2023-02-23T02:59:40.224Z,101068.56
2023-02-23T03:02:26.114Z,100986.28
2023-02-23T03:05:12.175Z,101064.09
2023-02-23T03:08:39.674Z,101040.03
2023-02-23T03:11:33.077Z,100975.47
2023-02-23T03:14:44.353Z,101065.72
2023-02-23T03:18:03.433Z,100945.78
2023-02-23T03:20:52.413Z,101066.66
2023-02-23T03:23:44.594Z,101072.72
2023-02-23T03:26:40.184Z,100982.31
2023-02-23T03:29:36.690Z,101069.97
2023-02-23T03:32:34.122Z,101077.94
2023-02-23T03:35:31.591Z,100988.25
2023-02-23T03:38:29.177Z,101077.81
2023-02-23T03:41:16.436Z,101054.38
2023-02-23T03:44:12.722Z,101042.81
2023-02-23T03:47:00.194Z,100972.88
2023-02-23T03:49:52.473Z,101062.31
2023-02-23T03:52:46.227Z,100999.56
2023-02-23T03:55:36.981Z,101064.09
2023-02-23T03:58:27.031Z,101081.97
2023-02-23T04:01:17.661Z,101054.38
2023-02-23T04:04:05.696Z,101086.41
2023-02-23T04:06:56.349Z,100987.94
2023-02-23T04:09:41.651Z,100984.34
2023-02-23T04:12:50.057Z,101089.03
2023-02-23T04:15:35.926Z,101088.09
2023-02-23T04:18:07.204Z,101090.72
2023-02-23T04:20:33.871Z,101059.41
2023-02-23T04:23:00.471Z,101064.63
2023-02-23T04:25:28.389Z,101070.94
2023-02-23T04:27:55.042Z,101082.50
2023-02-23T04:30:25.654Z,101104.00
2023-02-23T04:32:52.718Z,101055.84
2023-02-23T04:35:19.478Z,101105.88
2023-02-23T04:37:46.109Z,100980.50
2023-02-23T04:40:13.062Z,101071.88
2023-02-23T04:42:40.575Z,101021.69
2023-02-23T04:45:08.593Z,101063.09
2023-02-23T04:47:35.133Z,101085.34
2023-02-23T04:50:01.805Z,101082.63
2023-02-23T04:52:28.355Z,101030.66
2023-02-23T04:54:54.856Z,101083.56
2023-02-23T04:57:21.414Z,101089.78
2023-02-23T04:59:48.043Z,101111.09
2023-02-23T05:02:14.649Z,101077.22
2023-02-23T05:04:41.269Z,101059.16
2023-02-23T05:07:07.839Z,101007.13
2023-02-23T05:09:35.028Z,101094.84
2023-02-23T05:12:01.757Z,101019.72
2023-02-23T05:14:28.492Z,101101.97
2023-02-23T05:16:55.103Z,101098.25
2023-02-23T05:19:21.890Z,101106.41
2023-02-23T05:21:50.378Z,101093.13
2023-02-23T05:24:17.948Z,101088.53
2023-02-23T05:26:45.150Z,101097.44
2023-02-23T05:29:12.606Z,101020.25
2023-02-23T05:31:39.325Z,101092.72
2023-02-23T05:34:06.740Z,101125.03
2023-02-23T05:36:33.273Z,101093.59
2023-02-23T05:39:00.391Z,101048.72
2023-02-23T05:41:27.116Z,101067.59
2023-02-23T05:43:55.135Z,101064.19
2023-02-23T05:46:24.712Z,101099.88
2023-02-23T05:48:55.888Z,101109.84
2023-02-23T05:51:22.485Z,101055.03
2023-02-23T05:53:49.063Z,101103.44
2023-02-23T05:56:20.335Z,101128.53
2023-02-23T05:58:51.968Z,101137.50
2023-02-23T06:01:20.126Z,101026.38
2023-02-23T06:03:47.652Z,101102.44
2023-02-23T06:06:15.044Z,101051.38
2023-02-23T06:08:42.538Z,101127.38
2023-02-23T06:11:09.467Z,101043.22
2023-02-23T06:13:36.288Z,101106.00
2023-02-23T06:16:03.037Z,101122.09
2023-02-23T06:18:29.912Z,101054.75
2023-02-23T06:21:00.434Z,101059.34
2023-02-23T06:23:28.193Z,101119.41
2023-02-23T06:25:54.724Z,101132.00
2023-02-23T06:28:21.477Z,101117.53
2023-02-23T06:30:48.655Z,101155.00
2023-02-23T06:33:15.304Z,101085.06
2023-02-23T06:35:42.928Z,101077.06
2023-02-23T06:38:09.536Z,101161.31
2023-02-23T06:40:38.112Z,101057.44
2023-02-23T06:43:05.186Z,101103.09
2023-02-23T06:45:32.799Z,101144.41
2023-02-23T06:48:00.099Z,101180.28
2023-02-23T06:50:27.448Z,101177.63
2023-02-23T06:52:54.031Z,101042.34
2023-02-23T06:55:20.599Z,101103.16
2023-02-23T06:57:49.262Z,101120.00
2023-02-23T07:00:17.258Z,101114.59
2023-02-23T07:02:44.786Z,101199.44
2023-02-23T07:05:11.499Z,101159.22
2023-02-23T07:07:38.523Z,101202.22
2023-02-23T07:10:06.791Z,101186.84
2023-02-23T07:12:33.519Z,101125.75
2023-02-23T07:15:00.344Z,101148.25
2023-02-23T07:17:26.871Z,101138.13
2023-02-23T07:19:53.485Z,101122.19
2023-02-23T07:22:20.046Z,101199.13
2023-02-23T07:24:46.716Z,101207.25
2023-02-23T07:27:13.334Z,101217.75
2023-02-23T07:29:39.938Z,101122.81
2023-02-23T07:32:06.585Z,101209.72
2023-02-23T07:34:33.171Z,101140.59
2023-02-23T07:36:59.720Z,101215.09
2023-02-23T07:39:26.267Z,101218.56
2023-02-23T07:41:52.792Z,101205.06
2023-02-23T07:44:19.900Z,101103.81
2023-02-23T07:46:46.541Z,101158.59
2023-02-23T07:49:13.852Z,101218.59
2023-02-23T07:51:40.969Z,101224.13
2023-02-23T07:54:07.697Z,101226.84
2023-02-23T07:56:35.259Z,101242.06
2023-02-23T07:59:02.278Z,101231.47
2023-02-23T08:01:29.045Z,101111.25
2023-02-23T08:03:55.666Z,101213.44
2023-02-23T08:06:22.370Z,101263.59
2023-02-23T08:08:49.130Z,101230.56
2023-02-23T08:11:15.873Z,101252.94
2023-02-23T08:13:42.852Z,101173.25
2023-02-23T08:16:09.473Z,101248.72
2023-02-23T08:18:36.155Z,101168.91
2023-02-23T08:21:04.200Z,101272.91
2023-02-23T08:23:32.442Z,101193.94
2023-02-23T08:26:00.783Z,101185.91
2023-02-23T08:28:28.335Z,101249.44
2023-02-23T08:30:55.206Z,101226.81
2023-02-23T08:33:22.180Z,101262.59
2023-02-23T08:35:48.760Z,101250.94
2023-02-23T08:38:16.391Z,101268.69
2023-02-23T08:40:43.411Z,101272.28
2023-02-23T08:43:10.285Z,101261.63
2023-02-23T08:45:38.648Z,101231.13
2023-02-23T08:48:07.227Z,101191.06
2023-02-23T08:50:33.877Z,101291.53
2023-02-23T08:53:00.486Z,101284.34
2023-02-23T08:55:27.358Z,101275.38
2023-02-23T08:57:53.950Z,101263.06
2023-02-23T09:00:20.998Z,101297.19
2023-02-23T09:02:48.177Z,101295.66
2023-02-23T09:05:15.792Z,101289.53
2023-02-23T09:07:46.288Z,101254.00
2023-02-23T09:10:15.125Z,101223.44
2023-02-23T09:12:41.849Z,101286.53
2023-02-23T09:15:09.034Z,101264.97
2023-02-23T09:17:35.612Z,101186.00
2023-02-23T09:20:02.261Z,101286.66
2023-02-23T09:22:28.816Z,101303.69
2023-02-23T09:24:55.288Z,101241.94
2023-02-23T09:27:21.952Z,101263.72
2023-02-23T09:29:48.571Z,101306.81
2023-02-23T09:32:15.402Z,101224.31
2023-02-23T09:34:42.086Z,101333.72
2023-02-23T09:37:08.776Z,101244.16
2023-02-23T09:39:38.606Z,101318.81
2023-02-23T09:42:14.512Z,101242.63
2023-02-23T09:45:09.152Z,101340.97
2023-02-23T09:47:51.601Z,101353.22
2023-02-23T09:50:24.288Z,101327.13
2023-02-23T09:53:07.044Z,101346.66
2023-02-23T09:55:33.694Z,101323.91
2023-02-23T09:58:08.525Z,101313.03
2023-02-23T10:00:42.728Z,101289.78
2023-02-23T10:03:23.627Z,101358.03
2023-02-23T10:05:57.989Z,101322.41
2023-02-23T10:08:39.931Z,101353.97
2023-02-23T10:11:18.846Z,101357.59
2023-02-23T10:13:55.335Z,101356.88
2023-02-23T10:16:42.585Z,101351.47
2023-02-23T10:19:21.642Z,101218.00
2023-02-23T10:21:58.131Z,101273.81
2023-02-23T10:24:35.353Z,101339.81
2023-02-23T10:27:18.931Z,101346.34
2023-02-23T10:29:51.332Z,101351.16
2023-02-23T10:32:55.307Z,101352.25
2023-02-23T10:35:23.335Z,101335.09
2023-02-23T10:37:52.957Z,101347.69
2023-02-23T10:40:23.431Z,101329.72
2023-02-23T10:42:51.327Z,101345.50
2023-02-23T10:45:26.690Z,101331.16
2023-02-23T10:48:06.063Z,101282.69
2023-02-23T10:50:33.950Z,101357.72
2023-02-23T10:53:11.710Z,101290.94
2023-02-23T10:55:38.678Z,101278.34
2023-02-23T10:58:17.770Z,101358.75
2023-02-23T11:00:59.443Z,101378.38
2023-02-23T11:03:38.112Z,101302.59
2023-02-23T11:06:05.188Z,101363.66
2023-02-23T11:08:34.392Z,101288.03
2023-02-23T11:11:05.988Z,101384.72
2023-02-23T11:13:42.374Z,101289.88
2023-02-23T11:16:14.776Z,101382.44
2023-02-23T11:19:03.307Z,101375.22
2023-02-23T11:21:35.821Z,101363.59
2023-02-23T11:24:30.759Z,101388.00
2023-02-23T11:27:03.713Z,101365.63
2023-02-23T11:29:42.645Z,101307.44
2023-02-23T11:32:23.440Z,101348.31
2023-02-23T11:35:27.010Z,101366.63
2023-02-23T11:37:54.323Z,101342.75
2023-02-23T11:40:29.875Z,101362.94
2023-02-23T11:43:07.293Z,101323.03
2023-02-23T11:45:52.731Z,101339.56
2023-02-23T11:48:31.413Z,101343.31
2023-02-23T11:50:58.789Z,101334.50
2023-02-23T11:53:38.308Z,101331.09
2023-02-23T11:56:12.431Z,101341.91
2023-02-23T11:58:39.240Z,101369.59
2023-02-23T12:01:16.700Z,101286.97
2023-02-23T12:03:56.965Z,101351.63
2023-02-23T12:06:36.456Z,101350.09
2023-02-23T12:09:18.483Z,101370.78
2023-02-23T12:11:51.712Z,101344.91
2023-02-23T12:14:29.375Z,101277.25
2023-02-23T12:17:06.575Z,101368.53
2023-02-23T12:19:36.455Z,101364.16
2023-02-23T12:22:10.380Z,101311.47
2023-02-23T12:25:02.514Z,101357.44
2023-02-23T12:27:43.655Z,101363.41
2023-02-23T12:30:27.905Z,101335.69
2023-02-23T12:33:30.077Z,101355.97
2023-02-23T12:36:02.526Z,101285.66
2023-02-23T12:38:54.840Z,101333.91
2023-02-23T12:41:38.762Z,101332.78
2023-02-23T12:44:30.068Z,101286.13
2023-02-23T12:46:59.729Z,101315.81
2023-02-23T12:49:39.310Z,101272.81
2023-02-23T12:52:18.627Z,101336.50
2023-02-23T12:54:46.898Z,101324.00
2023-02-23T12:57:19.499Z,101368.50
2023-02-23T12:59:53.572Z,101365.63
2023-02-23T13:02:36.114Z,101327.16
2023-02-23T13:05:20.181Z,101361.06
2023-02-23T13:07:46.689Z,101358.22
2023-02-23T13:10:38.593Z,101329.28
2023-02-23T13:13:16.416Z,101367.56
2023-02-23T13:15:59.811Z,101218.66
2023-02-23T13:18:45.254Z,101351.25
2023-02-23T13:21:28.804Z,101284.03
2023-02-23T13:24:05.950Z,101356.66
2023-02-23T13:26:54.099Z,101356.75
2023-02-23T13:29:34.613Z,101337.03
2023-02-23T13:32:02.986Z,101342.66
2023-02-23T13:34:42.160Z,101296.06
2023-02-23T13:37:12.812Z,101342.75
2023-02-23T13:39:57.454Z,101344.53
2023-02-23T13:42:30.885Z,101353.75
2023-02-23T13:45:35.347Z,101351.47
2023-02-23T13:48:33.034Z,101344.53
2023-02-23T13:51:15.033Z,101340.19
2023-02-23T13:53:43.301Z,101358.16
2023-02-23T13:56:23.751Z,101328.47
2023-02-23T13:59:08.311Z,101270.97
2023-02-23T14:01:43.649Z,101323.75
2023-02-23T14:04:28.840Z,101257.22
2023-02-23T14:07:16.682Z,101307.50
2023-02-23T14:09:55.780Z,101285.00
2023-02-23T14:12:40.643Z,101355.44
2023-02-23T14:15:26.213Z,101356.22
2023-02-23T14:18:03.618Z,101365.84
2023-02-23T14:20:47.220Z,101347.00
2023-02-23T14:23:19.746Z,101356.75
2023-02-23T14:26:37.337Z,101364.41
2023-02-23T14:29:17.004Z,101365.97
2023-02-23T14:32:24.375Z,101373.69
2023-02-23T14:34:50.952Z,101369.25
2023-02-23T14:37:25.452Z,101318.03
2023-02-23T14:39:54.800Z,101341.38
2023-02-23T14:42:27.494Z,101349.38
2023-02-23T14:44:55.861Z,101344.88
2023-02-23T14:47:26.073Z,101370.81
2023-02-23T14:49:59.335Z,101308.84
2023-02-23T14:52:25.786Z,101377.94
2023-02-23T14:55:13.471Z,101375.00
2023-02-23T14:57:42.782Z,101364.25
2023-02-23T15:00:22.941Z,101380.41
2023-02-23T15:02:57.038Z,101290.72
2023-02-23T15:05:26.771Z,101386.66
2023-02-23T15:07:58.647Z,101295.97
2023-02-23T15:10:33.330Z,101351.56
2023-02-23T15:13:01.395Z,101285.22
2023-02-23T15:15:28.359Z,101370.38
2023-02-23T15:17:58.960Z,101270.72
2023-02-23T15:20:33.682Z,101360.47
2023-02-23T15:23:04.081Z,101374.78
2023-02-23T15:25:37.258Z,101268.75
2023-02-23T15:28:32.523Z,101274.22
2023-02-23T15:31:04.659Z,101281.22
2023-02-23T15:33:31.486Z,101356.50
2023-02-23T15:36:09.464Z,101385.88
2023-02-23T15:38:44.323Z,101350.78
2023-02-23T15:41:28.672Z,101317.63
2023-02-23T15:44:22.786Z,101351.81
2023-02-23T15:46:56.902Z,101299.56
2023-02-23T15:49:32.489Z,101381.34
2023-02-23T15:52:06.537Z,101222.59
2023-02-23T15:54:45.526Z,101374.03
2023-02-23T15:57:20.027Z,101379.34
2023-02-23T15:59:48.057Z,101302.19
2023-02-23T16:02:20.142Z,101382.81
2023-02-23T16:04:52.656Z,101294.75
2023-02-23T16:07:22.236Z,101291.16
2023-02-23T16:09:54.638Z,101295.75
2023-02-23T16:12:36.368Z,101386.34
2023-02-23T16:15:06.533Z,101292.97
2023-02-23T16:17:48.390Z,101343.06
2023-02-23T16:20:38.447Z,101382.59
2023-02-23T16:23:07.134Z,101378.00
2023-02-23T16:25:35.042Z,101301.59
2023-02-23T16:28:15.953Z,101301.69
2023-02-23T16:30:50.103Z,101350.94
2023-02-23T16:33:23.226Z,101301.59
2023-02-23T16:35:53.553Z,101370.66
2023-02-23T16:38:32.941Z,101313.13
2023-02-23T16:40:59.566Z,101317.50
2023-02-23T16:43:26.795Z,101366.91
2023-02-23T16:45:53.602Z,101388.41
2023-02-23T16:48:20.275Z,101397.28
2023-02-23T16:50:48.222Z,101313.66
2023-02-23T16:53:15.338Z,101333.31
2023-02-23T16:56:02.172Z,101415.75
2023-02-23T16:58:30.659Z,101376.28
2023-02-23T17:00:57.463Z,101360.09
2023-02-23T17:03:28.530Z,101379.03
2023-02-23T17:05:56.607Z,101405.03
2023-02-23T17:08:24.380Z,101393.31
2023-02-23T17:10:54.283Z,101243.59
2023-02-23T17:13:23.990Z,101304.66
2023-02-23T17:15:56.053Z,101372.72
2023-02-23T17:20:58.554Z,101313.22
2023-02-23T17:23:27.571Z,101410.03
2023-02-23T17:25:55.861Z,101409.88
2023-02-23T17:28:22.806Z,101381.75
2023-02-23T17:30:49.588Z,101337.63
2023-02-23T17:33:17.226Z,101365.41
2023-02-23T17:35:43.923Z,101384.34
2023-02-23T17:38:11.241Z,101321.47
2023-02-23T17:40:38.400Z,101411.06
2023-02-23T17:43:07.448Z,101414.66
2023-02-23T17:45:34.205Z,101423.69
2023-02-23T17:48:01.199Z,101388.66
2023-02-23T17:50:28.318Z,101432.72
2023-02-23T17:52:55.348Z,101398.66
2023-02-23T17:55:23.193Z,101377.03
2023-02-23T17:57:49.870Z,101390.44
2023-02-23T18:00:18.183Z,101347.94
2023-02-23T18:02:45.681Z,101338.88
2023-02-23T18:05:14.054Z,101412.16
2023-02-23T18:07:41.870Z,101400.50
2023-02-23T18:10:09.360Z,101417.31
2023-02-23T18:12:36.000Z,101425.19
2023-02-23T18:15:02.625Z,101401.06
2023-02-23T18:17:32.396Z,101424.22
2023-02-23T18:19:59.709Z,101398.34
2023-02-23T18:22:26.623Z,101349.59
2023-02-23T18:24:53.121Z,101418.47
2023-02-23T18:27:19.649Z,101442.47
2023-02-23T18:29:46.239Z,101401.00
2023-02-23T18:32:13.143Z,101448.34
2023-02-23T18:34:39.804Z,101443.44
2023-02-23T18:37:09.721Z,101439.72
2023-02-23T18:39:36.241Z,101437.81
2023-02-23T18:42:04.325Z,101436.66
2023-02-23T18:44:32.416Z,101450.50
2023-02-23T18:47:00.006Z,101413.38
2023-02-23T18:49:27.077Z,101422.13
2023-02-23T18:51:54.383Z,101404.03
2023-02-23T18:54:22.398Z,101351.84
2023-02-23T18:56:49.535Z,101361.38
2023-02-23T18:59:16.371Z,101392.81
2023-02-23T19:01:45.306Z,101443.06
2023-02-23T19:04:13.032Z,101374.56
2023-02-23T19:06:43.215Z,101384.50
2023-02-23T19:09:12.433Z,101451.50
2023-02-23T19:11:40.044Z,101455.88
2023-02-23T19:14:11.481Z,101471.00
2023-02-23T19:16:38.498Z,101469.94
2023-02-23T19:19:06.982Z,101481.59
2023-02-23T19:21:34.751Z,101494.47
2023-02-23T19:24:02.829Z,101461.84
2023-02-23T19:26:30.969Z,101402.28
2023-02-23T19:28:58.155Z,101473.22
2023-02-23T19:31:26.038Z,101466.81
2023-02-23T19:33:55.915Z,101408.88
2023-02-23T19:36:29.442Z,101496.03
2023-02-23T19:39:10.316Z,101377.44
2023-02-23T19:41:39.044Z,101398.75
2023-02-23T19:44:05.853Z,101481.22
2023-02-23T19:46:33.151Z,101498.97
2023-02-23T19:48:59.884Z,101466.66
2023-02-23T19:51:26.952Z,101407.66
2023-02-23T19:53:54.721Z,101452.84
2023-02-23T19:56:23.065Z,101393.09
2023-02-23T19:58:49.631Z,101453.34
2023-02-23T20:01:18.727Z,101407.34
2023-02-23T20:03:49.393Z,101502.22
2023-02-23T20:06:17.815Z,101362.97
2023-02-23T20:08:45.903Z,101446.22
2023-02-23T20:11:12.579Z,101397.63
2023-02-23T20:13:39.298Z,101455.88
2023-02-23T20:16:09.342Z,101495.75
2023-02-23T20:18:38.488Z,101470.88
2023-02-23T20:21:13.698Z,101485.81
2023-02-23T20:23:41.227Z,101437.00
2023-02-23T20:26:10.580Z,101515.84
2023-02-23T20:28:37.487Z,101415.91
2023-02-23T20:31:04.149Z,101505.88
2023-02-23T20:33:31.404Z,101514.56
2023-02-23T20:35:58.093Z,101469.66
2023-02-23T20:38:24.669Z,101475.06
2023-02-23T20:40:51.588Z,101473.38
2023-02-23T20:43:18.202Z,101496.03
2023-02-23T20:45:44.927Z,101407.78
2023-02-23T20:48:11.573Z,101454.34
2023-02-23T20:50:38.363Z,101474.88
2023-02-23T20:53:05.780Z,101488.31
2023-02-23T20:55:32.691Z,101442.06
2023-02-23T20:57:59.637Z,101469.75
2023-02-23T21:00:33.049Z,101495.47
2023-02-23T21:03:03.552Z,101473.38
2023-02-23T21:05:33.634Z,101404.78
2023-02-23T21:08:05.795Z,101389.72
2023-02-23T21:10:35.195Z,101399.97
2023-02-23T21:13:02.490Z,101474.94
2023-02-23T21:15:30.272Z,101457.38
2023-02-23T21:17:58.264Z,101440.41
2023-02-23T21:20:27.391Z,101489.78
2023-02-23T21:22:54.598Z,101392.69
2023-02-23T21:25:23.382Z,101428.28
2023-02-23T21:27:49.969Z,101360.22
2023-02-23T21:30:21.546Z,101442.06
2023-02-23T21:32:49.920Z,101477.06
2023-02-23T21:35:16.996Z,101376.22
2023-02-23T21:37:43.633Z,101433.59
2023-02-23T21:40:12.845Z,101448.13
2023-02-23T21:42:40.966Z,101469.28
2023-02-23T21:45:09.634Z,101449.13
2023-02-23T21:47:38.619Z,101376.53
2023-02-23T21:50:06.198Z,101474.88
2023-02-23T21:52:33.362Z,101465.72
2023-02-23T21:55:02.335Z,101366.03
2023-02-23T21:57:30.952Z,101461.13
2023-02-23T21:59:57.623Z,101342.72
2023-02-23T22:02:24.257Z,101458.47
2023-02-23T22:04:50.994Z,101458.16
2023-02-23T22:07:17.625Z,101463.41
2023-02-23T22:09:44.562Z,101370.94
2023-02-23T22:12:11.294Z,101462.72
2023-02-23T22:14:37.932Z,101407.06
2023-02-23T22:17:06.261Z,101485.31
2023-02-23T22:19:33.082Z,101460.59
2023-02-23T22:21:59.612Z,101351.25
2023-02-23T22:24:26.167Z,101463.88
2023-02-23T22:26:55.766Z,101477.13
2023-02-23T22:29:25.489Z,101446.00
2023-02-23T22:31:52.486Z,101474.16
2023-02-23T22:34:19.286Z,101481.78
2023-02-23T22:36:46.173Z,101428.44
2023-02-23T22:39:14.025Z,101454.97
2023-02-23T22:41:43.490Z,101480.06
2023-02-23T22:44:17.093Z,101477.28
2023-02-23T22:46:47.936Z,101470.78
2023-02-23T22:49:15.829Z,101431.16
2023-02-23T22:51:43.706Z,101441.81
2023-02-23T22:54:11.605Z,101451.72
2023-02-23T22:56:39.623Z,101441.72
2023-02-23T22:59:08.523Z,101446.13
2023-02-23T23:01:38.375Z,101374.78
2023-02-23T23:04:10.158Z,101399.84
2023-02-23T23:06:38.303Z,101353.38
2023-02-23T23:09:04.981Z,101433.66
2023-02-23T23:11:31.845Z,101335.94
2023-02-23T23:14:02.818Z,101349.13
2023-02-23T23:16:33.541Z,101444.03
2023-02-23T23:19:11.986Z,101341.19
2023-02-23T23:21:40.769Z,101448.28
2023-02-23T23:24:08.791Z,101417.44
2023-02-23T23:26:39.602Z,101362.09
2023-02-23T23:29:10.181Z,101413.19
2023-02-23T23:31:40.293Z,101440.63
2023-02-23T23:34:10.206Z,101447.13
2023-02-23T23:36:43.208Z,101290.25
2023-02-23T23:39:16.011Z,101425.44
2023-02-23T23:41:43.860Z,101332.59
2023-02-23T23:44:10.673Z,101360.59
2023-02-23T23:46:42.537Z,101381.63
2023-02-23T23:49:13.281Z,101409.88
2023-02-23T23:51:45.395Z,101412.56
2023-02-23T23:54:14.943Z,101404.25
2023-02-23T23:56:43.568Z,101300.25
2023-02-23T23:59:17.080Z,101348.00
